Time;durP1;ratioP1;P1;durP2;ratioP2;P2;SDS_P1;SDS_P2;PMS_P1;PMS_P2;Temp;Humidity;BMP_temperature;BMP_pressure;BME280_temperature;BME280_humidity;BME280_pressure;Samples;Min_cycle;Max_cycle;Signal;HPM_P1;HPM_P2
2023/05/17 05:23:17;;;;;;;1.27;1.17;;;21.60;71.70;;;;;;5072315;28;21398;-85
2023/05/17 05:25:44;;;;;;;1.53;1.13;;;21.70;72.00;;;;;;5055678;28;20430;-85
2023/05/17 05:28:11;;;;;;;1.20;1.10;;;21.70;72.10;;;;;;5055154;28;20809;-86
2023/05/17 05:30:38;;;;;;;1.80;1.50;;;21.70;71.90;;;;;;5055342;28;20823;-85
2023/05/17 05:33:05;;;;;;;2.40;1.30;;;21.70;71.90;;;;;;5055253;28;20816;-85
2023/05/17 05:35:34;;;;;;;1.50;1.27;;;21.70;71.90;;;;;;5055489;28;20834;-85
2023/05/17 05:38:01;;;;;;;1.33;0.90;;;21.70;71.90;;;;;;5055320;28;20450;-85
2023/05/17 05:40:29;;;;;;;1.10;1.00;;;21.70;72.00;;;;;;5055583;28;20541;-90
2023/05/17 05:42:56;;;;;;;1.30;1.00;;;21.70;71.90;;;;;;5055695;28;20446;-85
2023/05/17 05:45:23;;;;;;;2.00;1.07;;;21.70;71.80;;;;;;5055232;28;20439;-86
2023/05/17 05:47:50;;;;;;;4.23;1.10;;;21.80;72.10;;;;;;5055177;28;20439;-85
2023/05/17 05:50:17;;;;;;;2.17;1.20;;;21.70;72.10;;;;;;5055108;28;20441;-85
2023/05/17 05:52:43;;;;;;;1.20;1.00;;;21.70;71.80;;;;;;5055277;28;20434;-84
2023/05/17 05:55:10;;;;;;;5.17;1.40;;;21.80;72.10;;;;;;5054927;28;20494;-87
2023/05/17 05:57:38;;;;;;;1.47;1.10;;;21.70;71.80;;;;;;5054779;28;20478;-84
2023/05/17 06:00:06;;;;;;;2.37;1.40;;;21.70;71.60;;;;;;5054929;28;20449;-86
2023/05/17 06:02:33;;;;;;;2.57;1.50;;;21.70;71.80;;;;;;5055480;28;20439;-85
2023/05/17 06:05:02;;;;;;;1.47;1.37;;;21.70;72.00;;;;;;5055287;28;20434;-88
2023/05/17 06:07:29;;;;;;;4.13;1.30;;;21.70;71.80;;;;;;5054844;28;20446;-88
2023/05/17 06:09:55;;;;;;;8.60;1.30;;;21.70;71.60;;;;;;5054920;28;20455;-90
2023/05/17 06:12:22;;;;;;;2.03;1.20;;;21.80;71.70;;;;;;5054704;28;20435;-87
2023/05/17 06:14:50;;;;;;;14.17;3.03;;;21.80;71.10;;;;;;5054644;28;20456;-87
2023/05/17 06:17:17;;;;;;;12.07;2.83;;;21.80;70.60;;;;;;5054477;28;20453;-85
2023/05/17 06:19:47;;;;;;;5.97;2.00;;;21.70;70.20;;;;;;5054514;28;20444;-86
2023/05/17 06:22:14;;;;;;;8.93;2.13;;;21.70;71.50;;;;;;5054573;28;20442;-86
2023/05/17 06:24:41;;;;;;;2.73;1.63;;;21.70;71.90;;;;;;5065725;28;20480;-85
2023/05/17 06:27:08;;;;;;;7.73;2.60;;;21.70;71.70;;;;;;5074311;28;20516;-87
2023/05/17 06:29:35;;;;;;;5.87;1.90;;;21.70;71.70;;;;;;5074469;28;20775;-84
2023/05/17 06:32:04;;;;;;;8.50;2.13;;;21.90;72.10;;;;;;5073689;28;20523;-85
2023/05/17 06:34:31;;;;;;;6.77;2.00;;;21.70;71.80;;;;;;5073923;28;20472;-85
2023/05/17 06:36:58;;;;;;;10.63;2.17;;;21.70;71.90;;;;;;5080899;28;20484;-84
2023/05/17 06:39:25;;;;;;;6.17;1.70;;;21.70;71.70;;;;;;5106724;28;20443;-85
2023/05/17 06:41:52;;;;;;;7.73;2.00;;;21.80;71.80;;;;;;5114198;28;20443;-86
2023/05/17 06:44:19;;;;;;;5.80;1.83;;;21.80;71.80;;;;;;5114167;28;20446;-87
2023/05/17 06:46:47;;;;;;;4.93;2.03;;;21.80;71.80;;;;;;5114632;28;20443;-86
2023/05/17 06:49:15;;;;;;;8.40;2.20;;;21.90;71.10;;;;;;5114771;28;20434;-86
2023/05/17 06:51:41;;;;;;;5.67;2.03;;;21.80;71.40;;;;;;5106532;28;20445;-85
2023/05/17 06:54:09;;;;;;;5.83;2.03;;;21.90;71.70;;;;;;5074020;28;20553;-87
2023/05/17 06:56:36;;;;;;;7.70;2.40;;;21.80;71.70;;;;;;5078786;28;20487;-86
2023/05/17 06:59:02;;;;;;;4.80;2.33;;;21.80;71.50;;;;;;5094272;28;20441;-88
2023/05/17 07:01:30;;;;;;;2.50;1.60;;;21.90;71.40;;;;;;5094126;28;20433;-88
2023/05/17 07:03:57;;;;;;;3.00;1.60;;;21.80;71.40;;;;;;5094159;28;20441;-82
2023/05/17 07:06:25;;;;;;;2.70;1.47;;;22.00;71.40;;;;;;5093954;28;20486;-85
2023/05/17 07:08:51;;;;;;;4.63;1.40;;;21.90;71.40;;;;;;5094321;28;20437;-85
2023/05/17 07:11:18;;;;;;;3.43;1.70;;;21.90;71.10;;;;;;5094329;28;20436;-86
2023/05/17 07:13:45;;;;;;;5.30;2.53;;;21.90;71.00;;;;;;5091155;28;20447;-83
2023/05/17 07:16:12;;;;;;;7.90;2.17;;;21.90;70.50;;;;;;5093218;28;20521;-85
2023/05/17 07:18:38;;;;;;;5.13;1.50;;;21.90;70.60;;;;;;5093602;28;20443;-82
2023/05/17 07:21:05;;;;;;;5.83;2.20;;;21.90;70.30;;;;;;5093232;28;20448;-80
2023/05/17 07:23:34;;;;;;;9.97;2.47;;;21.90;70.30;;;;;;5103846;28;20433;-82
2023/05/17 07:26:01;;;;;;;3.80;1.97;;;22.00;70.30;;;;;;5113467;28;21173;-81
2023/05/17 07:28:28;;;;;;;3.30;2.10;;;22.00;70.50;;;;;;5112323;28;20773;-82
2023/05/17 07:30:55;;;;;;;7.07;1.53;;;22.00;70.80;;;;;;5111724;28;20444;-81
2023/05/17 07:33:21;;;;;;;10.33;2.17;;;22.10;70.70;;;;;;5112131;28;20452;-82
2023/05/17 07:35:48;;;;;;;2.37;1.83;;;22.00;70.70;;;;;;5112109;28;20494;-81
2023/05/17 07:38:15;;;;;;;7.33;2.03;;;22.00;70.60;;;;;;5111969;28;20443;-81
2023/05/17 07:40:43;;;;;;;4.17;1.87;;;22.00;70.60;;;;;;5093854;28;20463;-82
2023/05/17 07:43:10;;;;;;;5.00;2.03;;;22.00;70.50;;;;;;5088555;28;20450;-85
2023/05/17 07:45:37;;;;;;;6.77;2.00;;;22.00;69.70;;;;;;5072995;28;20444;-84
2023/05/17 07:48:04;;;;;;;6.53;1.90;;;22.00;69.80;;;;;;5080660;28;20461;-85
2023/05/17 07:50:31;;;;;;;2.53;1.30;;;22.00;69.50;;;;;;5093065;28;20441;-84
2023/05/17 07:52:57;;;;;;;5.27;1.93;;;22.00;69.40;;;;;;5097139;28;20526;-84
2023/05/17 07:55:24;;;;;;;3.57;1.63;;;22.00;69.20;;;;;;5089384;28;20441;-86
2023/05/17 07:57:52;;;;;;;5.00;2.00;;;22.00;69.10;;;;;;5086643;28;20555;-83
2023/05/17 08:00:21;;;;;;;3.80;1.57;;;22.00;69.10;;;;;;5079186;28;20448;-84
2023/05/17 08:02:48;;;;;;;5.67;2.30;;;22.00;69.00;;;;;;5093579;28;20458;-83
2023/05/17 08:05:15;;;;;;;2.80;1.33;;;22.00;69.80;;;;;;5093105;28;20923;-84
2023/05/17 08:07:42;;;;;;;2.87;1.83;;;22.20;70.20;;;;;;5078980;28;20440;-84
2023/05/17 08:10:09;;;;;;;3.50;1.43;;;22.00;70.00;;;;;;5072930;28;20810;-84
2023/05/17 08:12:36;;;;;;;3.00;1.70;;;22.00;70.10;;;;;;5073614;28;20802;-90
2023/05/17 08:15:06;;;;;;;2.90;1.67;;;22.00;70.00;;;;;;5086423;28;20874;-83
2023/05/17 08:17:33;;;;;;;5.53;1.60;;;22.00;69.90;;;;;;5087567;28;20910;-83
2023/05/17 08:20:00;;;;;;;3.70;2.10;;;22.00;69.90;;;;;;5079196;28;20470;-82
2023/05/17 08:22:27;;;;;;;4.43;1.70;;;22.10;70.20;;;;;;5088534;28;20445;-82
2023/05/17 08:24:54;;;;;;;3.13;1.63;;;22.00;70.40;;;;;;5083726;28;20473;-83
2023/05/17 08:27:21;;;;;;;3.30;1.90;;;22.00;70.40;;;;;;5092152;28;20457;-82
2023/05/17 08:29:48;;;;;;;4.07;1.67;;;22.00;70.40;;;;;;5090088;28;20468;-83
2023/05/17 08:32:16;;;;;;;3.10;1.40;;;22.00;70.60;;;;;;5084451;28;20490;-82
2023/05/17 08:34:44;;;;;;;5.57;1.80;;;22.00;70.70;;;;;;5084697;28;20437;-87
2023/05/17 08:37:11;;;;;;;2.37;1.30;;;22.10;70.70;;;;;;5096999;28;20830;-88
2023/05/17 08:39:38;;;;;;;4.50;1.80;;;22.10;70.10;;;;;;5094718;28;20454;-90
2023/05/17 08:42:08;;;;;;;3.90;1.97;;;22.10;70.60;;;;;;5087809;28;20868;-90
2023/05/17 08:44:37;;;;;;;3.10;1.63;;;22.10;71.00;;;;;;5073364;28;20809;-90
2023/05/17 08:47:06;;;;;;;4.50;1.30;;;22.10;71.10;;;;;;5092420;28;20455;-91
2023/05/17 08:49:36;;;;;;;4.70;1.80;;;22.10;70.80;;;;;;5093503;28;20535;-88
2023/05/17 08:52:08;;;;;;;3.57;1.73;;;22.10;70.90;;;;;;5092670;28;20443;-89
2023/05/17 08:54:35;;;;;;;2.70;1.10;;;22.20;70.90;;;;;;5095099;28;20524;-89
2023/05/17 08:57:06;;;;;;;3.80;2.00;;;22.20;70.70;;;;;;5096777;28;20552;-89
2023/05/17 08:59:34;;;;;;;5.87;1.70;;;22.20;70.90;;;;;;5086595;28;20871;-88
2023/05/17 09:02:01;;;;;;;5.43;1.47;;;22.20;70.80;;;;;;5077200;28;20476;-89
2023/05/17 09:04:30;;;;;;;4.63;1.10;;;22.20;70.90;;;;;;5095506;28;20441;-87
2023/05/17 09:06:58;;;;;;;3.73;1.60;;;22.20;70.90;;;;;;5102708;28;20448;-86
2023/05/17 09:09:27;;;;;;;1.80;1.10;;;22.20;70.00;;;;;;5105630;28;20936;-87
2023/05/17 09:11:54;;;;;;;4.57;1.20;;;22.20;70.80;;;;;;5094394;28;20476;-85
2023/05/17 09:14:21;;;;;;;6.40;1.53;;;22.20;70.60;;;;;;5077043;28;20934;-85
2023/05/17 09:16:48;;;;;;;10.53;2.03;;;22.20;70.10;;;;;;5075820;28;20490;-86
2023/05/17 09:19:16;;;;;;;4.60;1.20;;;22.20;69.70;;;;;;5093022;28;20792;-85
2023/05/17 09:21:45;;;;;;;2.93;1.60;;;22.20;70.70;;;;;;5081316;28;20530;-89
2023/05/17 09:24:14;;;;;;;3.27;2.00;;;22.20;70.90;;;;;;5080559;28;20472;-84
2023/05/17 09:26:41;;;;;;;4.20;1.40;;;22.20;70.90;;;;;;5089748;28;20464;-85
2023/05/17 09:29:09;;;;;;;3.00;1.90;;;22.20;70.60;;;;;;5095830;28;20526;-83
2023/05/17 09:31:36;;;;;;;4.53;1.70;;;22.30;70.60;;;;;;5090649;28;20483;-84
2023/05/17 09:34:04;;;;;;;2.93;1.57;;;22.30;70.70;;;;;;5095598;28;20444;-84
2023/05/17 09:36:32;;;;;;;3.20;1.63;;;22.30;71.00;;;;;;5095632;28;20485;-84
2023/05/17 09:39:01;;;;;;;2.03;1.60;;;22.30;71.10;;;;;;5095256;28;20460;-84
2023/05/17 09:41:30;;;;;;;2.30;1.63;;;22.40;71.30;;;;;;5096667;28;20439;-85
2023/05/17 09:43:59;;;;;;;3.43;1.57;;;22.60;71.60;;;;;;5095933;28;20441;-84
2023/05/17 09:46:26;;;;;;;3.73;1.40;;;22.50;71.40;;;;;;5096032;28;20457;-83
2023/05/17 09:48:55;;;;;;;3.63;1.40;;;22.50;71.70;;;;;;5095486;28;20439;-82
2023/05/17 09:51:32;;;;;;;3.30;1.20;;;22.50;71.70;;;;;;5112186;28;20441;-87
2023/05/17 09:54:00;;;;;;;2.60;1.40;;;22.60;71.80;;;;;;5116180;28;20514;-83
2023/05/17 09:56:30;;;;;;;1.70;1.40;;;22.60;71.70;;;;;;5116089;28;20819;-83
2023/05/17 09:58:57;;;;;;;3.83;1.23;;;22.60;71.80;;;;;;5115769;28;20451;-83
2023/05/17 10:01:28;;;;;;;2.03;1.20;;;22.70;71.70;;;;;;5115689;28;20435;-83
2023/05/17 10:03:55;;;;;;;2.80;1.20;;;22.70;71.50;;;;;;5115751;28;20449;-84
2023/05/17 10:06:23;;;;;;;6.90;1.73;;;22.70;71.30;;;;;;5115108;28;20443;-83
2023/05/17 10:08:53;;;;;;;3.10;1.20;;;22.70;71.40;;;;;;5115699;28;20498;-84
2023/05/17 10:11:26;;;;;;;2.70;1.40;;;22.70;71.60;;;;;;5116220;28;20444;-84
2023/05/17 10:14:05;;;;;;;3.27;1.40;;;22.90;71.90;;;;;;5115921;28;20447;-86
2023/05/17 10:16:33;;;;;;;1.40;1.17;;;22.80;71.70;;;;;;5116463;28;20579;-85
2023/05/17 10:19:01;;;;;;;1.60;1.10;;;22.80;71.70;;;;;;5115899;28;20837;-85
2023/05/17 10:21:28;;;;;;;2.70;1.40;;;22.80;71.70;;;;;;5115746;28;20436;-84
2023/05/17 10:23:56;;;;;;;1.60;1.10;;;22.90;71.80;;;;;;5115987;28;20474;-84
2023/05/17 10:26:24;;;;;;;2.73;1.60;;;22.90;71.90;;;;;;5111385;28;20909;-85
2023/05/17 10:28:55;;;;;;;1.87;1.40;;;22.90;72.00;;;;;;5094665;28;20447;-87
2023/05/17 10:31:23;;;;;;;4.23;1.70;;;22.90;71.20;;;;;;5079378;28;20929;-85
2023/05/17 10:33:51;;;;;;;3.67;1.70;;;22.90;69.40;;;;;;5074290;28;20482;-84
2023/05/17 10:36:18;;;;;;;1.67;1.27;;;22.80;70.40;;;;;;5074054;28;20465;-85
2023/05/17 10:38:45;;;;;;;2.80;1.20;;;22.90;70.70;;;;;;5074172;28;20447;-84
2023/05/17 10:41:15;;;;;;;3.47;1.27;;;22.90;71.10;;;;;;5081394;28;20437;-90
2023/05/17 10:43:43;;;;;;;1.30;1.20;;;23.00;71.30;;;;;;5094959;28;20450;-86
2023/05/17 10:46:15;;;;;;;3.37;1.37;;;23.00;71.40;;;;;;5088784;28;20446;-84
2023/05/17 10:48:43;;;;;;;4.07;1.30;;;23.00;71.40;;;;;;5074256;28;20475;-84
2023/05/17 10:51:11;;;;;;;2.00;1.23;;;23.00;71.50;;;;;;5072954;28;20438;-83
2023/05/17 10:54:09;;;;;;;3.80;1.20;;;23.10;71.20;;;;;;5072649;28;20499;-81
2023/05/17 10:56:40;;;;;;;3.67;1.37;;;23.10;71.60;;;;;;5072003;28;20486;-82
2023/05/17 10:59:20;;;;;;;4.53;1.70;;;23.10;71.60;;;;;;5073360;28;20436;-82
2023/05/17 11:02:02;;;;;;;6.27;1.30;;;23.20;72.10;;;;;;5073624;28;20522;-81
2023/05/17 11:04:33;;;;;;;3.57;1.30;;;23.20;72.20;;;;;;5073577;28;20849;-81
2023/05/17 11:07:27;;;;;;;2.70;1.63;;;23.20;72.10;;;;;;5072791;28;20451;-82
2023/05/17 11:10:04;;;;;;;2.00;1.53;;;23.20;72.20;;;;;;5071732;28;20458;-81
2023/05/17 11:12:34;;;;;;;4.27;1.63;;;23.20;72.00;;;;;;5071040;28;21004;-82
2023/05/17 11:15:05;;;;;;;3.97;1.40;;;23.20;72.10;;;;;;5071672;28;20441;-82
2023/05/17 11:17:37;;;;;;;3.73;1.30;;;23.30;72.30;;;;;;5070849;28;20493;-81
2023/05/17 11:20:08;;;;;;;3.30;1.70;;;23.30;72.20;;;;;;5089469;28;20474;-81
2023/05/17 11:22:38;;;;;;;5.27;1.50;;;23.30;72.00;;;;;;5092062;28;20441;-82
2023/05/17 11:25:09;;;;;;;3.80;1.07;;;23.30;72.10;;;;;;5091681;28;20477;-82
2023/05/17 11:27:38;;;;;;;3.80;1.80;;;23.40;72.00;;;;;;5090611;28;20492;-80
2023/05/17 11:30:10;;;;;;;6.30;1.50;;;23.40;72.20;;;;;;5092977;28;20461;-80
2023/05/17 11:32:38;;;;;;;5.30;2.00;;;23.40;72.20;;;;;;5084783;28;20959;-81
2023/05/17 11:35:06;;;;;;;2.20;1.50;;;23.40;72.20;;;;;;5071760;28;20444;-81
2023/05/17 11:37:33;;;;;;;3.53;1.50;;;23.40;72.30;;;;;;5073312;28;20491;-81
2023/05/17 11:40:05;;;;;;;3.73;1.60;;;23.50;72.40;;;;;;5072855;28;20531;-81
2023/05/17 11:42:32;;;;;;;6.63;1.37;;;23.50;72.70;;;;;;5072851;28;20448;-81
2023/05/17 11:45:01;;;;;;;4.50;1.70;;;23.50;72.60;;;;;;5073206;28;20452;-82
2023/05/17 11:47:28;;;;;;;2.90;1.43;;;23.50;72.70;;;;;;5072330;28;20470;-82
2023/05/17 11:50:01;;;;;;;3.63;1.70;;;23.50;72.70;;;;;;5071883;28;20436;-82
2023/05/17 11:52:28;;;;;;;2.03;1.17;;;23.40;72.80;;;;;;5072406;28;20488;-81
2023/05/17 11:54:57;;;;;;;5.17;1.70;;;23.40;72.80;;;;;;5072429;28;20533;-80
2023/05/17 11:57:29;;;;;;;2.57;1.33;;;23.40;72.90;;;;;;5072191;28;20500;-80
2023/05/17 12:00:00;;;;;;;3.33;1.67;;;23.40;73.00;;;;;;5072283;28;20443;-81
2023/05/17 12:02:27;;;;;;;3.60;1.77;;;23.40;73.20;;;;;;5071644;28;20491;-81
2023/05/17 12:04:55;;;;;;;3.67;1.80;;;23.40;73.10;;;;;;5071681;28;20862;-80
2023/05/17 12:07:23;;;;;;;1.77;1.27;;;23.40;73.20;;;;;;5071315;28;20443;-81
2023/05/17 12:09:50;;;;;;;1.80;1.10;;;23.40;73.40;;;;;;5071655;28;20448;-81
2023/05/17 12:12:17;;;;;;;3.93;1.40;;;23.50;73.20;;;;;;5071488;28;20834;-80
2023/05/17 12:14:44;;;;;;;4.43;1.80;;;23.50;73.30;;;;;;5071426;28;20444;-81
2023/05/17 12:17:18;;;;;;;2.80;1.50;;;23.50;73.10;;;;;;5071606;28;20536;-81
2023/05/17 12:19:44;;;;;;;1.87;1.40;;;23.50;72.90;;;;;;5072816;28;20443;-81
2023/05/17 12:22:12;;;;;;;2.50;1.37;;;23.50;73.30;;;;;;5073022;28;20447;-80
2023/05/17 12:24:41;;;;;;;1.90;1.40;;;23.50;73.40;;;;;;5072607;28;20479;-82
2023/05/17 12:27:08;;;;;;;2.43;1.20;;;23.50;73.30;;;;;;5072692;28;20461;-81
2023/05/17 12:29:34;;;;;;;4.17;1.20;;;23.50;73.30;;;;;;5074420;28;20515;-82
2023/05/17 12:32:02;;;;;;;2.83;1.40;;;23.50;73.30;;;;;;5076476;28;20446;-82
2023/05/17 12:34:30;;;;;;;2.80;1.30;;;23.50;73.30;;;;;;5076423;28;20441;-82
2023/05/17 12:36:57;;;;;;;3.00;1.13;;;23.50;73.30;;;;;;5076313;28;20443;-83
2023/05/17 12:39:26;;;;;;;1.60;1.23;;;23.50;73.20;;;;;;5076277;28;20448;-80
2023/05/17 12:41:53;;;;;;;1.43;1.13;;;23.70;73.30;;;;;;5076130;28;20452;-81
2023/05/17 12:44:20;;;;;;;2.90;1.10;;;23.50;73.30;;;;;;5076457;28;20453;-81
2023/05/17 12:46:52;;;;;;;3.33;1.17;;;23.50;73.40;;;;;;5076048;28;20811;-80
2023/05/17 12:49:20;;;;;;;2.70;1.60;;;23.50;73.40;;;;;;5076244;28;20528;-81
2023/05/17 12:51:47;;;;;;;5.07;1.30;;;23.70;73.60;;;;;;5076056;28;20496;-82
2023/05/17 12:54:24;;;;;;;1.53;1.20;;;23.50;73.50;;;;;;5076129;28;20440;-82
2023/05/17 12:56:52;;;;;;;2.37;1.33;;;23.50;73.90;;;;;;5074600;28;20935;-82
2023/05/17 12:59:20;;;;;;;3.03;1.40;;;23.50;73.60;;;;;;5075071;28;20444;-81
2023/05/17 13:01:48;;;;;;;2.37;1.57;;;23.50;74.20;;;;;;5074710;28;20470;-82
2023/05/17 13:04:16;;;;;;;4.10;1.40;;;23.50;73.40;;;;;;5075533;28;20931;-81
2023/05/17 13:06:45;;;;;;;2.70;1.30;;;23.50;73.30;;;;;;5075894;28;20452;-81
2023/05/17 13:09:12;;;;;;;2.20;1.20;;;23.50;73.20;;;;;;5075706;28;20845;-81
2023/05/17 13:11:40;;;;;;;4.27;1.43;;;23.50;73.30;;;;;;5075830;28;20475;-81
2023/05/17 13:14:08;;;;;;;2.33;1.30;;;23.50;73.40;;;;;;5075665;28;20451;-82
2023/05/17 13:16:38;;;;;;;2.23;1.00;;;23.50;73.40;;;;;;5074789;28;20448;-81
2023/05/17 13:19:12;;;;;;;2.70;1.50;;;23.50;73.30;;;;;;5073929;28;20519;-81
2023/05/17 13:21:39;;;;;;;1.40;0.93;;;23.50;73.30;;;;;;5073987;28;20447;-81
2023/05/17 13:24:06;;;;;;;2.90;1.10;;;23.40;73.30;;;;;;5073891;28;20493;-82
2023/05/17 13:26:33;;;;;;;4.00;0.97;;;23.40;73.10;;;;;;5074227;28;20954;-82
2023/05/17 13:28:59;;;;;;;1.90;1.23;;;23.40;73.20;;;;;;5074473;28;20907;-82
2023/05/17 13:31:27;;;;;;;1.97;1.10;;;23.50;73.10;;;;;;5074589;28;20444;-81
2023/05/17 13:33:55;;;;;;;3.63;1.10;;;23.50;74.20;;;;;;5075309;28;20452;-80
2023/05/17 13:36:21;;;;;;;2.57;1.20;;;23.40;73.30;;;;;;5075273;28;20440;-81
2023/05/17 13:38:48;;;;;;;1.63;1.00;;;23.40;73.30;;;;;;5075192;28;20494;-80
2023/05/17 13:41:16;;;;;;;1.60;1.00;;;23.40;73.60;;;;;;5074249;28;20771;-80
2023/05/17 13:43:43;;;;;;;1.87;1.07;;;23.40;73.50;;;;;;5075118;28;21000;-80
2023/05/17 13:46:10;;;;;;;1.93;1.10;;;23.50;73.80;;;;;;5075155;28;20954;-81
2023/05/17 13:48:38;;;;;;;1.40;1.03;;;23.40;73.80;;;;;;5074862;28;20778;-81
2023/05/17 13:51:05;;;;;;;3.10;1.10;;;23.60;73.70;;;;;;5075222;28;20774;-81
2023/05/17 13:53:32;;;;;;;3.00;1.03;;;23.40;73.30;;;;;;5074829;28;20517;-81
2023/05/17 13:55:58;;;;;;;2.07;1.20;;;23.40;73.10;;;;;;5074710;28;20459;-82
2023/05/17 13:58:25;;;;;;;1.80;0.97;;;23.40;73.40;;;;;;5074779;28;21034;-82
2023/05/17 14:00:52;;;;;;;2.27;1.20;;;23.40;73.10;;;;;;5074835;28;20439;-82
2023/05/17 14:03:20;;;;;;;1.83;1.00;;;23.40;73.20;;;;;;5074772;28;20439;-83
2023/05/17 14:05:50;;;;;;;1.40;1.17;;;23.50;73.40;;;;;;5074511;28;20493;-82
2023/05/17 14:08:17;;;;;;;1.30;1.00;;;23.50;73.30;;;;;;5073459;28;20505;-82
2023/05/17 14:10:44;;;;;;;1.63;1.03;;;23.50;73.40;;;;;;5073658;28;20446;-82
2023/05/17 14:13:11;;;;;;;2.67;1.30;;;23.50;73.20;;;;;;5074120;28;20443;-82
2023/05/17 14:15:38;;;;;;;2.27;1.10;;;23.50;73.30;;;;;;5074408;28;20529;-82
2023/05/17 14:18:06;;;;;;;4.07;1.17;;;23.50;73.20;;;;;;5074170;28;20479;-82
2023/05/17 14:20:33;;;;;;;2.33;1.10;;;23.40;73.30;;;;;;5074182;28;20440;-82
2023/05/17 14:23:01;;;;;;;6.57;0.90;;;23.40;73.20;;;;;;5074366;28;20451;-83
2023/05/17 14:25:28;;;;;;;13.47;1.00;;;23.60;73.40;;;;;;5074186;28;20479;-82
2023/05/17 14:27:55;;;;;;;2.07;0.90;;;23.40;73.30;;;;;;5073965;28;20448;-82
2023/05/17 14:30:22;;;;;;;3.77;1.00;;;23.40;73.00;;;;;;5072794;28;20459;-82
2023/05/17 14:32:48;;;;;;;1.73;1.00;;;23.40;73.20;;;;;;5072521;28;20443;-82
2023/05/17 14:35:16;;;;;;;1.63;1.20;;;23.40;73.10;;;;;;5072551;28;20566;-83
2023/05/17 14:37:43;;;;;;;1.70;0.90;;;23.40;73.20;;;;;;5072376;28;20556;-82
2023/05/17 14:40:11;;;;;;;2.17;1.03;;;23.40;73.10;;;;;;5072452;28;20818;-82
2023/05/17 14:42:38;;;;;;;1.23;0.83;;;23.40;73.20;;;;;;5072482;28;20942;-82
2023/05/17 14:45:07;;;;;;;1.50;1.23;;;23.40;73.10;;;;;;5074300;28;20525;-82
2023/05/17 14:47:34;;;;;;;2.17;1.00;;;23.40;73.30;;;;;;5073873;28;20460;-82
2023/05/17 14:50:01;;;;;;;1.67;1.00;;;23.40;73.20;;;;;;5073992;28;20436;-83
2023/05/17 14:52:28;;;;;;;4.13;1.10;;;23.40;73.10;;;;;;5073922;28;20432;-82
2023/05/17 14:54:54;;;;;;;1.70;1.07;;;23.40;73.10;;;;;;5073999;28;20764;-82
2023/05/17 14:57:23;;;;;;;1.50;1.10;;;23.50;73.10;;;;;;5073557;28;20463;-82
2023/05/17 14:59:49;;;;;;;1.43;1.00;;;23.50;73.20;;;;;;5073510;28;20444;-83
2023/05/17 15:02:17;;;;;;;1.80;0.80;;;23.50;73.20;;;;;;5073703;28;20446;-81
2023/05/17 15:04:44;;;;;;;2.80;1.10;;;23.60;73.30;;;;;;5073521;28;20535;-82
2023/05/17 15:07:10;;;;;;;1.77;0.90;;;23.70;73.50;;;;;;5073540;28;20439;-83
2023/05/17 15:09:41;;;;;;;1.70;1.10;;;23.60;73.10;;;;;;5073832;28;20806;-82
2023/05/17 15:12:09;;;;;;;1.60;0.80;;;23.60;73.00;;;;;;5073628;28;20934;-82
2023/05/17 15:14:37;;;;;;;3.10;1.10;;;23.60;73.00;;;;;;5073572;28;20508;-83
2023/05/17 15:17:04;;;;;;;4.80;1.10;;;23.60;72.90;;;;;;5073548;28;20447;-82
2023/05/17 15:19:31;;;;;;;1.27;0.80;;;23.50;72.90;;;;;;5073475;28;20491;-82
2023/05/17 15:21:58;;;;;;;1.60;0.97;;;23.50;73.30;;;;;;5073684;28;20441;-82
2023/05/17 15:24:26;;;;;;;2.17;1.00;;;23.50;73.30;;;;;;5073046;28;20467;-82
2023/05/17 15:26:52;;;;;;;1.20;1.00;;;23.50;73.20;;;;;;5073445;28;20487;-82
2023/05/17 15:29:19;;;;;;;3.10;1.27;;;23.60;73.50;;;;;;5073397;28;20443;-82
2023/05/17 15:31:47;;;;;;;1.87;1.27;;;23.40;73.30;;;;;;5073483;28;20471;-81
2023/05/17 15:34:14;;;;;;;3.13;1.10;;;23.40;73.30;;;;;;5073429;28;20909;-81
2023/05/17 15:36:41;;;;;;;1.47;1.10;;;23.40;73.20;;;;;;5073393;28;20443;-82
2023/05/17 15:39:09;;;;;;;1.43;0.90;;;23.40;73.10;;;;;;5073065;28;20487;-81
2023/05/17 15:41:36;;;;;;;2.00;1.13;;;23.40;73.20;;;;;;5073185;28;20849;-83
2023/05/17 15:44:04;;;;;;;1.70;1.03;;;23.40;73.20;;;;;;5073643;28;20436;-81
2023/05/17 15:46:31;;;;;;;1.60;1.00;;;23.40;73.30;;;;;;5073162;28;20440;-81
2023/05/17 15:48:59;;;;;;;2.50;1.37;;;23.40;73.50;;;;;;5073367;28;20500;-81
2023/05/17 15:51:26;;;;;;;1.20;1.00;;;23.40;73.50;;;;;;5073342;28;20487;-82
2023/05/17 15:53:52;;;;;;;1.83;1.10;;;23.40;73.40;;;;;;5073072;28;20439;-82
2023/05/17 15:56:20;;;;;;;1.67;1.17;;;23.40;73.70;;;;;;5072849;28;20464;-81
2023/05/17 15:58:47;;;;;;;1.63;0.97;;;23.40;73.60;;;;;;5072921;28;20475;-82
2023/05/17 16:01:14;;;;;;;1.60;1.00;;;23.40;73.60;;;;;;5073283;28;20451;-81
2023/05/17 16:03:41;;;;;;;1.87;1.00;;;23.40;73.60;;;;;;5073167;28;20446;-82
2023/05/17 16:06:09;;;;;;;1.63;0.90;;;23.40;73.40;;;;;;5077061;28;20536;-82
2023/05/17 16:08:36;;;;;;;1.40;1.00;;;23.40;73.30;;;;;;5076903;28;20438;-81
2023/05/17 16:11:03;;;;;;;2.90;1.07;;;23.40;73.30;;;;;;5077470;28;20447;-83
2023/05/17 16:13:30;;;;;;;1.30;0.80;;;23.40;72.90;;;;;;5076939;28;20446;-81
2023/05/17 16:15:58;;;;;;;1.97;1.20;;;23.30;72.90;;;;;;5076998;28;20447;-80
2023/05/17 16:18:25;;;;;;;1.83;0.93;;;23.40;73.00;;;;;;5076831;28;20487;-81
2023/05/17 16:20:58;;;;;;;3.13;1.00;;;23.30;72.80;;;;;;5077143;28;20543;-82
2023/05/17 16:23:26;;;;;;;1.40;1.23;;;23.40;72.80;;;;;;5076891;28;20535;-82
2023/05/17 16:25:54;;;;;;;2.03;1.13;;;23.40;72.90;;;;;;5076648;28;20788;-81
2023/05/17 16:28:22;;;;;;;1.37;0.80;;;23.30;72.70;;;;;;5076703;28;20443;-82
2023/05/17 16:30:49;;;;;;;1.40;1.00;;;23.30;72.70;;;;;;5076811;28;20432;-83
2023/05/17 16:33:16;;;;;;;1.67;1.10;;;23.30;72.90;;;;;;5078538;28;20455;-84
2023/05/17 16:35:43;;;;;;;1.37;1.13;;;23.30;73.20;;;;;;5093023;28;20459;-85
2023/05/17 16:38:10;;;;;;;1.67;0.90;;;23.30;70.50;;;;;;5075162;28;20440;-83
2023/05/17 16:40:39;;;;;;;3.80;1.20;;;23.20;68.50;;;;;;5075358;28;20451;-83
2023/05/17 16:43:06;;;;;;;2.23;1.20;;;23.20;68.60;;;;;;5075282;28;20443;-84
2023/05/17 16:45:33;;;;;;;1.50;0.90;;;23.10;67.50;;;;;;5075372;28;20444;-83
2023/05/17 16:48:00;;;;;;;2.93;1.20;;;23.00;66.80;;;;;;5075441;28;20455;-85
2023/05/17 16:50:27;;;;;;;2.03;1.17;;;23.00;66.00;;;;;;5074772;28;20447;-83
2023/05/17 16:52:53;;;;;;;1.50;1.20;;;23.00;65.60;;;;;;5074656;28;20442;-86
2023/05/17 16:55:20;;;;;;;1.83;1.03;;;23.00;65.80;;;;;;5074839;28;20960;-83
2023/05/17 16:57:48;;;;;;;1.60;1.13;;;23.00;65.80;;;;;;5075035;28;20438;-85
2023/05/17 17:00:16;;;;;;;1.40;1.00;;;23.00;65.80;;;;;;5074853;28;21004;-83
2023/05/17 17:02:43;;;;;;;6.23;1.47;;;22.90;65.70;;;;;;5074710;28;20439;-83
2023/05/17 17:05:10;;;;;;;1.30;0.90;;;22.90;67.10;;;;;;5074883;28;20454;-83
2023/05/17 17:07:37;;;;;;;2.20;1.03;;;22.90;66.40;;;;;;5075449;28;20453;-83
2023/05/17 17:10:04;;;;;;;1.77;1.13;;;22.90;65.70;;;;;;5075818;28;20574;-85
2023/05/17 17:12:31;;;;;;;3.33;1.00;;;22.90;65.80;;;;;;5075909;28;20441;-82
2023/05/17 17:14:59;;;;;;;1.40;1.27;;;22.90;65.20;;;;;;5075713;28;20450;-82
2023/05/17 17:17:26;;;;;;;1.30;1.00;;;22.80;65.00;;;;;;5075623;28;20444;-83
2023/05/17 17:19:53;;;;;;;2.97;1.20;;;22.80;65.10;;;;;;5075244;28;20514;-80
2023/05/17 17:22:20;;;;;;;2.40;1.20;;;22.90;65.20;;;;;;5075454;28;20933;-81
2023/05/17 17:24:47;;;;;;;4.10;1.60;;;22.80;65.70;;;;;;5075102;28;20473;-82
2023/05/17 17:27:14;;;;;;;4.07;1.50;;;22.90;65.90;;;;;;5080210;28;20481;-81
2023/05/17 17:29:40;;;;;;;2.23;1.20;;;22.80;66.40;;;;;;5105691;28;20812;-80
2023/05/17 17:32:09;;;;;;;3.33;1.40;;;22.80;68.40;;;;;;5092504;28;20489;-81
2023/05/17 17:34:35;;;;;;;6.57;1.47;;;22.80;69.00;;;;;;5091977;28;20443;-81
2023/05/17 17:37:02;;;;;;;2.60;1.30;;;22.80;69.00;;;;;;5075215;28;20439;-81
2023/05/17 17:39:29;;;;;;;1.73;1.13;;;22.80;68.70;;;;;;5075202;28;20485;-82
2023/05/17 17:41:56;;;;;;;3.50;1.40;;;22.80;68.70;;;;;;5073906;28;20542;-79
2023/05/17 17:44:23;;;;;;;1.97;1.27;;;22.80;68.70;;;;;;5074820;28;20450;-81
2023/05/17 17:46:49;;;;;;;3.43;1.50;;;22.80;69.20;;;;;;5073445;28;20448;-78
2023/05/17 17:49:18;;;;;;;1.90;1.33;;;22.90;69.70;;;;;;5073593;28;20483;-79
2023/05/17 17:51:45;;;;;;;5.07;1.70;;;22.90;69.80;;;;;;5074205;28;20440;-81
2023/05/17 17:54:11;;;;;;;2.93;1.20;;;22.80;69.60;;;;;;5074582;28;20483;-83
2023/05/17 17:56:38;;;;;;;2.40;1.40;;;22.80;69.70;;;;;;5075075;28;20991;-89
2023/05/17 17:59:05;;;;;;;2.07;1.37;;;22.90;69.90;;;;;;5091913;28;20483;-91
2023/05/17 18:01:33;;;;;;;2.63;1.50;;;22.80;70.00;;;;;;5094688;28;20961;-93
2023/05/17 18:04:00;;;;;;;2.87;1.40;;;22.90;70.40;;;;;;5094870;28;20458;-83
2023/05/17 18:06:28;;;;;;;2.90;1.10;;;22.90;70.30;;;;;;5094858;28;20446;-85
2023/05/17 18:08:56;;;;;;;4.77;1.50;;;22.90;70.30;;;;;;5094688;28;20455;-83
2023/05/17 18:11:23;;;;;;;3.77;1.63;;;22.90;70.40;;;;;;5094243;28;21272;-79